Gertrude V. Creel — WDH7805 — position and weather

sailwx.info

Track history (hours):
 
Tides and Currents Weather Stations Pressure Air Temp Water Temp Dewpoint Dewpoint Depression Visibility Wind Speed Wind Dir Waves Ship Positions

Gertrude V. Creel

Owner: Blessey Enterprises, Inc., Harahan, LA. More information available from US FCC via Universal Licensing System and Coast Guard Vessel Documentation Center.

Last reported at 2018-Jan-20 18:37 UTC. Time now 2018-Jan-24 11:57 UTC.
Position N 29°34' W 090°29'.

Length 76 m; draft 2.7 m.

Type: Towing. MMSI: 367651830.

Date/timePositionNaut miles runAvg speedWind from/ knotsBaromVisibWave heightAir tempDewpointWater temp
2018-Jan-20 18:37N 29°34' W 090°29'1 6.2
2018-Jan-20 18:29N 29°34' W 090°30'3 5.9
2018-Jan-20 18:00N 29°34' W 090°33'3 5.5
2018-Jan-20 17:30N 29°35' W 090°36'3 5.3
2018-Jan-20 17:00N 29°35' W 090°39'2 4.9
2018-Jan-20 16:30N 29°36' W 090°41'1 2.9
2018-Jan-20 16:00N 29°36' W 090°43'2 4.6
2018-Jan-20 15:30N 29°34' W 090°44'3 5.5
2018-Jan-20 15:00N 29°32' W 090°47'3 5.7
2018-Jan-20 14:30N 29°32' W 090°50'4 6.4
2018-Jan-20 13:52N 29°33' W 090°54'61 4.8
2018-Jan-20 01:11N 29°49' W 092°02'1 5.4
2018-Jan-20 01:00N 29°49' W 092°03'3 5.5
2018-Jan-20 00:30N 29°48' W 092°06'3 5.5
2018-Jan-20 00:00N 29°47' W 092°09'2 4.7
2018-Jan-19 23:30N 29°47' W 092°12'1 1.1
2018-Jan-19 23:00N 29°47' W 092°13'2 3.3
2018-Jan-19 22:29N 29°48' W 092°14'0 0.7
2018-Jan-19 22:00N 29°48' W 092°15'1 1.7
2018-Jan-19 21:30N 29°48' W 092°16'37 5.5
2018-Jan-19 14:44N 29°56' W 092°58'1 4.0
2018-Jan-19 14:23N 29°56' W 092°59'2 5.0
2018-Jan-19 14:01N 29°56' W 093°01'3 5.0
2018-Jan-19 13:23N 29°56' W 093°05'2 5.3
2018-Jan-19 13:00N 29°56' W 093°07'2 4.9
2018-Jan-19 12:30N 29°57' W 093°10'3 5.1
2018-Jan-19 12:00N 29°59' W 093°12'2 4.4
2018-Jan-19 11:31N 30°00' W 093°14'2 4.8
2018-Jan-19 11:00N 30°02' W 093°15'3 5.4
2018-Jan-19 10:31N 30°05' W 093°17'1 2.9
2018-Jan-19 10:01N 30°05' W 093°18'1 2.0
2018-Jan-19 09:31N 30°06' W 093°19'2 4.1
2018-Jan-19 09:01N 30°05' W 093°20'2 3.7
2018-Jan-19 08:30N 30°04' W 093°22'1 2.6
2018-Jan-19 08:00N 30°04' W 093°24'2 4.1
2018-Jan-19 07:30N 30°04' W 093°26'3 5.8
2018-Jan-19 06:58N 30°04' W 093°30'3 5.7
2018-Jan-19 06:24N 30°04' W 093°33'5 6.1
2018-Jan-19 05:38N 30°04' W 093°39'1 6.9
2018-Jan-19 05:30N 30°04' W 093°40'3 6.3
2018-Jan-19 05:01N 30°03' W 093°43'  
2018-Jan-12 10:38N 29°44' W 095°08'1 5.6
2018-Jan-12 10:26N 29°44' W 095°09'  
Track history (hours):
 
Tides and Currents Weather Stations Pressure Air Temp Water Temp Dewpoint Dewpoint Depression Visibility Wind Speed Wind Dir Waves Ship Positions

Gertrude V. Creel

Owner: Blessey Enterprises, Inc., Harahan, LA. More information available from US FCC via Universal Licensing System and Coast Guard Vessel Documentation Center.

Last reported at 2018-Jan-20 18:37 UTC. Time now 2018-Jan-24 11:57 UTC.
Position N 29°34' W 090°29'.

Length 76 m; draft 2.7 m.

Type: Towing. MMSI: 367651830.

Date/timePositionNaut miles runAvg speedWind from/ knotsBaromVisibWave heightAir tempDewpointWater temp
2018-Jan-20 18:37N 29°34' W 090°29'1 6.2
2018-Jan-20 18:29N 29°34' W 090°30'3 5.9
2018-Jan-20 18:00N 29°34' W 090°33'3 5.5
2018-Jan-20 17:30N 29°35' W 090°36'3 5.3
2018-Jan-20 17:00N 29°35' W 090°39'2 4.9
2018-Jan-20 16:30N 29°36' W 090°41'1 2.9
2018-Jan-20 16:00N 29°36' W 090°43'2 4.6
2018-Jan-20 15:30N 29°34' W 090°44'3 5.5
2018-Jan-20 15:00N 29°32' W 090°47'3 5.7
2018-Jan-20 14:30N 29°32' W 090°50'4 6.4
2018-Jan-20 13:52N 29°33' W 090°54'61 4.8
2018-Jan-20 01:11N 29°49' W 092°02'1 5.4
2018-Jan-20 01:00N 29°49' W 092°03'3 5.5
2018-Jan-20 00:30N 29°48' W 092°06'3 5.5
2018-Jan-20 00:00N 29°47' W 092°09'2 4.7
2018-Jan-19 23:30N 29°47' W 092°12'1 1.1
2018-Jan-19 23:00N 29°47' W 092°13'2 3.3
2018-Jan-19 22:29N 29°48' W 092°14'0 0.7
2018-Jan-19 22:00N 29°48' W 092°15'1 1.7
2018-Jan-19 21:30N 29°48' W 092°16'37 5.5
2018-Jan-19 14:44N 29°56' W 092°58'1 4.0
2018-Jan-19 14:23N 29°56' W 092°59'2 5.0
2018-Jan-19 14:01N 29°56' W 093°01'3 5.0
2018-Jan-19 13:23N 29°56' W 093°05'2 5.3
2018-Jan-19 13:00N 29°56' W 093°07'2 4.9
2018-Jan-19 12:30N 29°57' W 093°10'3 5.1
2018-Jan-19 12:00N 29°59' W 093°12'2 4.4
2018-Jan-19 11:31N 30°00' W 093°14'2 4.8
2018-Jan-19 11:00N 30°02' W 093°15'3 5.4
2018-Jan-19 10:31N 30°05' W 093°17'1 2.9
2018-Jan-19 10:01N 30°05' W 093°18'1 2.0
2018-Jan-19 09:31N 30°06' W 093°19'2 4.1
2018-Jan-19 09:01N 30°05' W 093°20'2 3.7
2018-Jan-19 08:30N 30°04' W 093°22'1 2.6
2018-Jan-19 08:00N 30°04' W 093°24'2 4.1
2018-Jan-19 07:30N 30°04' W 093°26'3 5.8
2018-Jan-19 06:58N 30°04' W 093°30'3 5.7
2018-Jan-19 06:24N 30°04' W 093°33'5 6.1
2018-Jan-19 05:38N 30°04' W 093°39'1 6.9
2018-Jan-19 05:30N 30°04' W 093°40'3 6.3
2018-Jan-19 05:01N 30°03' W 093°43'  
2018-Jan-12 10:38N 29°44' W 095°08'1 5.6
2018-Jan-12 10:26N 29°44' W 095°09'  

Dump ship's entire track history